sensor_id;sensor_type;location;lat;lon;timestamp;P1;durP1;ratioP1;P2;durP2;ratioP2
4323;SDS011;2175;51.018;6.994;2022-07-19T00:02:01;6.20;;;4.23;;
4323;SDS011;2175;51.018;6.994;2022-07-19T00:04:27;6.43;;;3.97;;
4323;SDS011;2175;51.018;6.994;2022-07-19T00:06:53;6.70;;;4.37;;
4323;SDS011;2175;51.018;6.994;2022-07-19T00:09:20;8.33;;;3.90;;
4323;SDS011;2175;51.018;6.994;2022-07-19T00:11:46;7.73;;;3.63;;
4323;SDS011;2175;51.018;6.994;2022-07-19T00:14:12;12.17;;;4.23;;
4323;SDS011;2175;51.018;6.994;2022-07-19T00:16:38;7.10;;;3.97;;
4323;SDS011;2175;51.018;6.994;2022-07-19T00:19:04;8.00;;;4.07;;
4323;SDS011;2175;51.018;6.994;2022-07-19T00:21:29;6.80;;;3.97;;
4323;SDS011;2175;51.018;6.994;2022-07-19T00:23:55;7.10;;;4.50;;
4323;SDS011;2175;51.018;6.994;2022-07-19T00:26:20;6.17;;;4.00;;
4323;SDS011;2175;51.018;6.994;2022-07-19T00:28:46;6.50;;;4.00;;
4323;SDS011;2175;51.018;6.994;2022-07-19T00:31:12;5.57;;;4.30;;
4323;SDS011;2175;51.018;6.994;2022-07-19T00:33:37;6.37;;;3.80;;
4323;SDS011;2175;51.018;6.994;2022-07-19T00:36:03;6.37;;;3.80;;
4323;SDS011;2175;51.018;6.994;2022-07-19T00:38:29;7.50;;;4.13;;
4323;SDS011;2175;51.018;6.994;2022-07-19T00:40:55;6.80;;;4.10;;
4323;SDS011;2175;51.018;6.994;2022-07-19T00:43:21;7.67;;;4.07;;
4323;SDS011;2175;51.018;6.994;2022-07-19T00:45:46;7.90;;;4.73;;
4323;SDS011;2175;51.018;6.994;2022-07-19T00:48:12;9.47;;;4.47;;
4323;SDS011;2175;51.018;6.994;2022-07-19T00:50:38;8.80;;;4.70;;
4323;SDS011;2175;51.018;6.994;2022-07-19T00:53:04;7.63;;;4.77;;
4323;SDS011;2175;51.018;6.994;2022-07-19T00:55:32;5.73;;;3.87;;
4323;SDS011;2175;51.018;6.994;2022-07-19T00:57:58;7.43;;;4.67;;
4323;SDS011;2175;51.018;6.994;2022-07-19T01:00:26;6.30;;;4.50;;
4323;SDS011;2175;51.018;6.994;2022-07-19T01:02:53;6.07;;;4.17;;
4323;SDS011;2175;51.018;6.994;2022-07-19T01:05:19;6.70;;;4.27;;
4323;SDS011;2175;51.018;6.994;2022-07-19T01:07:45;8.83;;;4.80;;
4323;SDS011;2175;51.018;6.994;2022-07-19T01:10:12;7.97;;;4.40;;
4323;SDS011;2175;51.018;6.994;2022-07-19T01:12:40;9.13;;;4.80;;
4323;SDS011;2175;51.018;6.994;2022-07-19T01:15:13;8.40;;;4.80;;
4323;SDS011;2175;51.018;6.994;2022-07-19T01:17:44;7.57;;;4.00;;
4323;SDS011;2175;51.018;6.994;2022-07-19T01:20:10;10.40;;;4.30;;
4323;SDS011;2175;51.018;6.994;2022-07-19T01:22:36;7.20;;;4.13;;
4323;SDS011;2175;51.018;6.994;2022-07-19T01:25:02;7.43;;;4.70;;
4323;SDS011;2175;51.018;6.994;2022-07-19T01:27:28;8.73;;;4.47;;
4323;SDS011;2175;51.018;6.994;2022-07-19T01:29:54;10.50;;;5.37;;
4323;SDS011;2175;51.018;6.994;2022-07-19T01:32:20;7.37;;;5.00;;
4323;SDS011;2175;51.018;6.994;2022-07-19T01:34:46;10.73;;;5.50;;
4323;SDS011;2175;51.018;6.994;2022-07-19T01:37:11;8.73;;;5.63;;
4323;SDS011;2175;51.018;6.994;2022-07-19T01:39:37;10.33;;;6.57;;
4323;SDS011;2175;51.018;6.994;2022-07-19T01:42:02;15.90;;;9.10;;
4323;SDS011;2175;51.018;6.994;2022-07-19T01:44:28;24.17;;;13.10;;
4323;SDS011;2175;51.018;6.994;2022-07-19T01:46:54;21.47;;;12.23;;
4323;SDS011;2175;51.018;6.994;2022-07-19T01:49:19;19.47;;;11.03;;
4323;SDS011;2175;51.018;6.994;2022-07-19T01:51:45;24.90;;;12.00;;
4323;SDS011;2175;51.018;6.994;2022-07-19T01:54:10;16.87;;;10.23;;
4323;SDS011;2175;51.018;6.994;2022-07-19T01:56:36;14.27;;;9.20;;
4323;SDS011;2175;51.018;6.994;2022-07-19T01:59:06;21.17;;;9.77;;
4323;SDS011;2175;51.018;6.994;2022-07-19T02:01:31;14.93;;;9.37;;
4323;SDS011;2175;51.018;6.994;2022-07-19T02:03:57;18.10;;;10.13;;
4323;SDS011;2175;51.018;6.994;2022-07-19T02:06:22;19.40;;;9.63;;
4323;SDS011;2175;51.018;6.994;2022-07-19T02:08:48;15.13;;;8.20;;
4323;SDS011;2175;51.018;6.994;2022-07-19T02:11:14;15.37;;;8.40;;
4323;SDS011;2175;51.018;6.994;2022-07-19T02:13:58;16.20;;;9.10;;
4323;SDS011;2175;51.018;6.994;2022-07-19T02:16:23;14.37;;;8.60;;
4323;SDS011;2175;51.018;6.994;2022-07-19T02:18:49;15.53;;;8.73;;
4323;SDS011;2175;51.018;6.994;2022-07-19T02:21:14;15.30;;;7.37;;
4323;SDS011;2175;51.018;6.994;2022-07-19T02:23:40;13.10;;;7.60;;
4323;SDS011;2175;51.018;6.994;2022-07-19T02:26:06;11.80;;;7.37;;
4323;SDS011;2175;51.018;6.994;2022-07-19T02:28:31;12.70;;;7.17;;
4323;SDS011;2175;51.018;6.994;2022-07-19T02:30:57;10.50;;;6.80;;
4323;SDS011;2175;51.018;6.994;2022-07-19T02:33:23;12.07;;;7.23;;
4323;SDS011;2175;51.018;6.994;2022-07-19T02:35:48;13.10;;;6.90;;
4323;SDS011;2175;51.018;6.994;2022-07-19T02:38:14;11.40;;;6.20;;
4323;SDS011;2175;51.018;6.994;2022-07-19T02:40:39;8.93;;;5.70;;
4323;SDS011;2175;51.018;6.994;2022-07-19T02:43:05;14.43;;;5.73;;
4323;SDS011;2175;51.018;6.994;2022-07-19T02:45:31;12.33;;;5.83;;
4323;SDS011;2175;51.018;6.994;2022-07-19T02:47:56;8.87;;;5.13;;
4323;SDS011;2175;51.018;6.994;2022-07-19T02:50:22;9.37;;;5.73;;
4323;SDS011;2175;51.018;6.994;2022-07-19T02:52:48;12.70;;;5.60;;
4323;SDS011;2175;51.018;6.994;2022-07-19T02:55:13;9.60;;;4.73;;
4323;SDS011;2175;51.018;6.994;2022-07-19T02:57:39;7.97;;;5.73;;
4323;SDS011;2175;51.018;6.994;2022-07-19T03:00:05;13.83;;;5.93;;
4323;SDS011;2175;51.018;6.994;2022-07-19T03:02:35;9.77;;;5.70;;
4323;SDS011;2175;51.018;6.994;2022-07-19T03:05:01;10.17;;;5.80;;
4323;SDS011;2175;51.018;6.994;2022-07-19T03:07:26;20.87;;;5.73;;
4323;SDS011;2175;51.018;6.994;2022-07-19T03:09:52;7.67;;;5.13;;
4323;SDS011;2175;51.018;6.994;2022-07-19T03:12:18;7.93;;;5.50;;
4323;SDS011;2175;51.018;6.994;2022-07-19T03:14:43;7.43;;;5.23;;
4323;SDS011;2175;51.018;6.994;2022-07-19T03:17:09;11.03;;;5.87;;
4323;SDS011;2175;51.018;6.994;2022-07-19T03:19:35;8.90;;;5.83;;
4323;SDS011;2175;51.018;6.994;2022-07-19T03:22:00;10.20;;;5.33;;
4323;SDS011;2175;51.018;6.994;2022-07-19T03:24:26;7.90;;;5.77;;
4323;SDS011;2175;51.018;6.994;2022-07-19T03:26:52;8.60;;;5.30;;
4323;SDS011;2175;51.018;6.994;2022-07-19T03:29:17;11.70;;;5.50;;
4323;SDS011;2175;51.018;6.994;2022-07-19T03:31:43;7.40;;;4.67;;
4323;SDS011;2175;51.018;6.994;2022-07-19T03:34:09;7.43;;;5.13;;
4323;SDS011;2175;51.018;6.994;2022-07-19T03:36:35;17.03;;;5.50;;
4323;SDS011;2175;51.018;6.994;2022-07-19T03:39:00;10.17;;;5.10;;
4323;SDS011;2175;51.018;6.994;2022-07-19T03:41:26;11.07;;;5.80;;
4323;SDS011;2175;51.018;6.994;2022-07-19T03:43:51;9.33;;;5.87;;
4323;SDS011;2175;51.018;6.994;2022-07-19T03:46:18;6.90;;;5.00;;
4323;SDS011;2175;51.018;6.994;2022-07-19T03:48:45;7.80;;;4.93;;
4323;SDS011;2175;51.018;6.994;2022-07-19T03:51:12;9.77;;;5.40;;
4323;SDS011;2175;51.018;6.994;2022-07-19T03:53:38;8.33;;;5.10;;
4323;SDS011;2175;51.018;6.994;2022-07-19T03:56:04;8.00;;;4.90;;
4323;SDS011;2175;51.018;6.994;2022-07-19T03:58:30;8.03;;;5.27;;
4323;SDS011;2175;51.018;6.994;2022-07-19T04:00:56;7.60;;;5.00;;
4323;SDS011;2175;51.018;6.994;2022-07-19T04:03:21;7.50;;;5.13;;
4323;SDS011;2175;51.018;6.994;2022-07-19T04:05:47;7.60;;;5.47;;
4323;SDS011;2175;51.018;6.994;2022-07-19T04:08:13;9.00;;;4.77;;
4323;SDS011;2175;51.018;6.994;2022-07-19T04:10:39;9.13;;;5.03;;
4323;SDS011;2175;51.018;6.994;2022-07-19T04:13:05;8.17;;;4.77;;
4323;SDS011;2175;51.018;6.994;2022-07-19T04:15:31;7.57;;;4.97;;
4323;SDS011;2175;51.018;6.994;2022-07-19T04:17:57;8.27;;;4.80;;
4323;SDS011;2175;51.018;6.994;2022-07-19T04:20:23;7.50;;;5.00;;
4323;SDS011;2175;51.018;6.994;2022-07-19T04:22:48;8.30;;;4.73;;
4323;SDS011;2175;51.018;6.994;2022-07-19T04:25:14;9.20;;;4.13;;
4323;SDS011;2175;51.018;6.994;2022-07-19T04:27:40;9.07;;;5.10;;
4323;SDS011;2175;51.018;6.994;2022-07-19T04:30:06;7.60;;;4.80;;
4323;SDS011;2175;51.018;6.994;2022-07-19T04:32:32;7.80;;;4.40;;
4323;SDS011;2175;51.018;6.994;2022-07-19T04:34:58;9.43;;;5.27;;
4323;SDS011;2175;51.018;6.994;2022-07-19T04:37:25;9.73;;;4.30;;
4323;SDS011;2175;51.018;6.994;2022-07-19T04:39:50;14.07;;;5.37;;
4323;SDS011;2175;51.018;6.994;2022-07-19T04:42:16;15.80;;;5.30;;
4323;SDS011;2175;51.018;6.994;2022-07-19T04:44:43;8.33;;;4.93;;
4323;SDS011;2175;51.018;6.994;2022-07-19T04:47:08;8.87;;;5.20;;
4323;SDS011;2175;51.018;6.994;2022-07-19T04:49:34;9.80;;;5.70;;
4323;SDS011;2175;51.018;6.994;2022-07-19T04:52:00;15.20;;;5.40;;
4323;SDS011;2175;51.018;6.994;2022-07-19T04:54:26;10.20;;;5.33;;
4323;SDS011;2175;51.018;6.994;2022-07-19T04:56:51;11.80;;;5.60;;
4323;SDS011;2175;51.018;6.994;2022-07-19T04:59:17;19.93;;;6.40;;
4323;SDS011;2175;51.018;6.994;2022-07-19T05:01:43;13.33;;;5.93;;
4323;SDS011;2175;51.018;6.994;2022-07-19T05:04:08;12.70;;;5.57;;
4323;SDS011;2175;51.018;6.994;2022-07-19T05:06:34;8.70;;;4.97;;
4323;SDS011;2175;51.018;6.994;2022-07-19T05:09:00;8.43;;;3.97;;
4323;SDS011;2175;51.018;6.994;2022-07-19T05:11:26;6.80;;;3.90;;
4323;SDS011;2175;51.018;6.994;2022-07-19T05:13:51;7.10;;;4.53;;
4323;SDS011;2175;51.018;6.994;2022-07-19T05:16:17;11.17;;;4.70;;
4323;SDS011;2175;51.018;6.994;2022-07-19T05:18:43;8.23;;;4.57;;
4323;SDS011;2175;51.018;6.994;2022-07-19T05:21:08;6.10;;;4.23;;
4323;SDS011;2175;51.018;6.994;2022-07-19T05:23:34;7.87;;;4.30;;
4323;SDS011;2175;51.018;6.994;2022-07-19T05:26:00;7.30;;;4.30;;
4323;SDS011;2175;51.018;6.994;2022-07-19T05:28:26;12.13;;;3.90;;
4323;SDS011;2175;51.018;6.994;2022-07-19T05:30:51;9.83;;;4.50;;
4323;SDS011;2175;51.018;6.994;2022-07-19T05:33:17;16.70;;;4.00;;
4323;SDS011;2175;51.018;6.994;2022-07-19T05:35:43;11.67;;;4.20;;
4323;SDS011;2175;51.018;6.994;2022-07-19T05:38:08;6.20;;;4.23;;
4323;SDS011;2175;51.018;6.994;2022-07-19T05:40:34;7.47;;;4.27;;
4323;SDS011;2175;51.018;6.994;2022-07-19T05:43:00;8.30;;;3.97;;
4323;SDS011;2175;51.018;6.994;2022-07-19T05:45:26;5.83;;;3.80;;
4323;SDS011;2175;51.018;6.994;2022-07-19T05:47:52;7.50;;;4.00;;
4323;SDS011;2175;51.018;6.994;2022-07-19T05:50:17;10.43;;;4.37;;
4323;SDS011;2175;51.018;6.994;2022-07-19T05:52:43;12.00;;;3.87;;
4323;SDS011;2175;51.018;6.994;2022-07-19T05:55:09;8.87;;;4.43;;
4323;SDS011;2175;51.018;6.994;2022-07-19T05:57:35;5.10;;;3.50;;
4323;SDS011;2175;51.018;6.994;2022-07-19T06:00:00;5.37;;;3.03;;
4323;SDS011;2175;51.018;6.994;2022-07-19T06:02:26;8.37;;;3.60;;
4323;SDS011;2175;51.018;6.994;2022-07-19T06:04:52;7.30;;;3.77;;
4323;SDS011;2175;51.018;6.994;2022-07-19T06:07:17;7.93;;;3.63;;
4323;SDS011;2175;51.018;6.994;2022-07-19T06:09:43;7.53;;;4.03;;
4323;SDS011;2175;51.018;6.994;2022-07-19T06:12:08;8.57;;;3.90;;
4323;SDS011;2175;51.018;6.994;2022-07-19T06:14:34;5.33;;;3.00;;
4323;SDS011;2175;51.018;6.994;2022-07-19T06:17:00;7.47;;;3.70;;
4323;SDS011;2175;51.018;6.994;2022-07-19T06:19:25;4.60;;;2.93;;
4323;SDS011;2175;51.018;6.994;2022-07-19T06:21:52;4.53;;;3.43;;
4323;SDS011;2175;51.018;6.994;2022-07-19T06:24:20;11.37;;;3.60;;
4323;SDS011;2175;51.018;6.994;2022-07-19T06:26:46;7.50;;;3.37;;
4323;SDS011;2175;51.018;6.994;2022-07-19T06:29:12;6.27;;;3.03;;
4323;SDS011;2175;51.018;6.994;2022-07-19T06:31:37;5.80;;;3.50;;
4323;SDS011;2175;51.018;6.994;2022-07-19T06:34:03;4.83;;;3.00;;
4323;SDS011;2175;51.018;6.994;2022-07-19T06:36:29;7.63;;;3.40;;
4323;SDS011;2175;51.018;6.994;2022-07-19T06:38:54;8.10;;;3.40;;
4323;SDS011;2175;51.018;6.994;2022-07-19T06:41:20;7.10;;;3.30;;
4323;SDS011;2175;51.018;6.994;2022-07-19T06:43:46;3.80;;;2.90;;
4323;SDS011;2175;51.018;6.994;2022-07-19T06:46:11;4.73;;;3.00;;
4323;SDS011;2175;51.018;6.994;2022-07-19T06:48:37;6.70;;;3.40;;
4323;SDS011;2175;51.018;6.994;2022-07-19T06:51:04;5.13;;;3.20;;
4323;SDS011;2175;51.018;6.994;2022-07-19T06:53:31;11.10;;;3.23;;
4323;SDS011;2175;51.018;6.994;2022-07-19T06:55:57;7.80;;;3.23;;
4323;SDS011;2175;51.018;6.994;2022-07-19T06:58:23;5.77;;;3.30;;
4323;SDS011;2175;51.018;6.994;2022-07-19T07:00:49;4.53;;;3.77;;
4323;SDS011;2175;51.018;6.994;2022-07-19T07:03:16;8.00;;;4.20;;
4323;SDS011;2175;51.018;6.994;2022-07-19T07:05:43;9.50;;;3.60;;
4323;SDS011;2175;51.018;6.994;2022-07-19T07:08:09;19.97;;;3.77;;
4323;SDS011;2175;51.018;6.994;2022-07-19T07:10:34;4.63;;;3.00;;
4323;SDS011;2175;51.018;6.994;2022-07-19T07:13:00;4.63;;;3.00;;
4323;SDS011;2175;51.018;6.994;2022-07-19T07:15:26;12.03;;;3.43;;
4323;SDS011;2175;51.018;6.994;2022-07-19T07:17:51;6.20;;;3.43;;
4323;SDS011;2175;51.018;6.994;2022-07-19T07:20:17;6.13;;;3.47;;
4323;SDS011;2175;51.018;6.994;2022-07-19T07:22:43;5.20;;;3.40;;
4323;SDS011;2175;51.018;6.994;2022-07-19T07:25:08;8.47;;;3.57;;
4323;SDS011;2175;51.018;6.994;2022-07-19T07:27:34;8.57;;;3.60;;
4323;SDS011;2175;51.018;6.994;2022-07-19T07:30:00;4.43;;;3.10;;
4323;SDS011;2175;51.018;6.994;2022-07-19T07:32:26;6.73;;;3.73;;
4323;SDS011;2175;51.018;6.994;2022-07-19T07:34:52;6.07;;;3.43;;
4323;SDS011;2175;51.018;6.994;2022-07-19T07:37:18;6.67;;;3.70;;
4323;SDS011;2175;51.018;6.994;2022-07-19T07:39:44;7.73;;;4.30;;
4323;SDS011;2175;51.018;6.994;2022-07-19T07:42:09;9.37;;;4.10;;
4323;SDS011;2175;51.018;6.994;2022-07-19T07:44:35;10.90;;;3.03;;
4323;SDS011;2175;51.018;6.994;2022-07-19T07:47:00;9.23;;;3.30;;
4323;SDS011;2175;51.018;6.994;2022-07-19T07:49:26;28.67;;;7.50;;
4323;SDS011;2175;51.018;6.994;2022-07-19T07:51:52;10.50;;;3.80;;
4323;SDS011;2175;51.018;6.994;2022-07-19T07:54:18;4.50;;;3.20;;
4323;SDS011;2175;51.018;6.994;2022-07-19T07:56:44;9.20;;;3.90;;
4323;SDS011;2175;51.018;6.994;2022-07-19T07:59:09;20.50;;;4.53;;
4323;SDS011;2175;51.018;6.994;2022-07-19T08:01:35;4.30;;;3.30;;
4323;SDS011;2175;51.018;6.994;2022-07-19T08:04:02;3.83;;;2.80;;
4323;SDS011;2175;51.018;6.994;2022-07-19T08:06:29;6.33;;;2.80;;
4323;SDS011;2175;51.018;6.994;2022-07-19T08:08:54;5.17;;;2.80;;
4323;SDS011;2175;51.018;6.994;2022-07-19T08:11:20;4.83;;;2.60;;
4323;SDS011;2175;51.018;6.994;2022-07-19T08:13:46;5.17;;;2.77;;
4323;SDS011;2175;51.018;6.994;2022-07-19T08:16:12;4.80;;;2.83;;
4323;SDS011;2175;51.018;6.994;2022-07-19T08:18:38;5.23;;;3.00;;
4323;SDS011;2175;51.018;6.994;2022-07-19T08:21:03;7.60;;;3.00;;
4323;SDS011;2175;51.018;6.994;2022-07-19T08:23:29;6.90;;;3.07;;
4323;SDS011;2175;51.018;6.994;2022-07-19T08:25:55;5.60;;;3.20;;
4323;SDS011;2175;51.018;6.994;2022-07-19T08:28:20;4.20;;;2.73;;
4323;SDS011;2175;51.018;6.994;2022-07-19T08:30:46;4.13;;;2.63;;
4323;SDS011;2175;51.018;6.994;2022-07-19T08:33:12;3.57;;;2.60;;
4323;SDS011;2175;51.018;6.994;2022-07-19T08:35:37;4.70;;;2.60;;
4323;SDS011;2175;51.018;6.994;2022-07-19T08:38:03;6.60;;;2.70;;
4323;SDS011;2175;51.018;6.994;2022-07-19T08:40:31;4.00;;;2.50;;
4323;SDS011;2175;51.018;6.994;2022-07-19T08:42:59;3.70;;;2.40;;
4323;SDS011;2175;51.018;6.994;2022-07-19T08:45:28;5.20;;;2.43;;
4323;SDS011;2175;51.018;6.994;2022-07-19T08:47:56;5.90;;;2.57;;
4323;SDS011;2175;51.018;6.994;2022-07-19T08:50:22;4.63;;;2.40;;
4323;SDS011;2175;51.018;6.994;2022-07-19T08:52:51;3.33;;;2.40;;
4323;SDS011;2175;51.018;6.994;2022-07-19T08:55:17;10.53;;;2.60;;
4323;SDS011;2175;51.018;6.994;2022-07-19T08:57:43;7.07;;;2.40;;
4323;SDS011;2175;51.018;6.994;2022-07-19T09:00:28;3.50;;;2.50;;
4323;SDS011;2175;51.018;6.994;2022-07-19T09:02:56;4.90;;;2.37;;
4323;SDS011;2175;51.018;6.994;2022-07-19T09:05:25;2.53;;;2.17;;
4323;SDS011;2175;51.018;6.994;2022-07-19T09:10:33;2.50;;;2.00;;
4323;SDS011;2175;51.018;6.994;2022-07-19T09:13:11;5.23;;;2.50;;
4323;SDS011;2175;51.018;6.994;2022-07-19T09:21:04;4.40;;;2.20;;
4323;SDS011;2175;51.018;6.994;2022-07-19T09:23:31;4.20;;;2.20;;
4323;SDS011;2175;51.018;6.994;2022-07-19T09:26:02;9.90;;;3.00;;
4323;SDS011;2175;51.018;6.994;2022-07-19T09:28:30;2.60;;;2.30;;
4323;SDS011;2175;51.018;6.994;2022-07-19T09:30:58;6.80;;;2.20;;
4323;SDS011;2175;51.018;6.994;2022-07-19T09:33:25;5.40;;;2.10;;
4323;SDS011;2175;51.018;6.994;2022-07-19T09:36:00;2.20;;;2.00;;
4323;SDS011;2175;51.018;6.994;2022-07-19T09:38:34;5.27;;;1.90;;
4323;SDS011;2175;51.018;6.994;2022-07-19T09:41:11;4.47;;;2.07;;
4323;SDS011;2175;51.018;6.994;2022-07-19T09:43:58;2.67;;;1.80;;
4323;SDS011;2175;51.018;6.994;2022-07-19T09:46:34;5.10;;;1.87;;
4323;SDS011;2175;51.018;6.994;2022-07-19T09:49:23;6.07;;;1.90;;
4323;SDS011;2175;51.018;6.994;2022-07-19T09:51:48;2.17;;;1.70;;
4323;SDS011;2175;51.018;6.994;2022-07-19T09:54:17;3.93;;;1.50;;
4323;SDS011;2175;51.018;6.994;2022-07-19T09:56:47;4.13;;;1.80;;
4323;SDS011;2175;51.018;6.994;2022-07-19T09:59:15;1.87;;;1.60;;
4323;SDS011;2175;51.018;6.994;2022-07-19T10:01:42;1.60;;;1.50;;
4323;SDS011;2175;51.018;6.994;2022-07-19T10:04:09;1.97;;;1.80;;
4323;SDS011;2175;51.018;6.994;2022-07-19T10:06:37;5.60;;;2.10;;
4323;SDS011;2175;51.018;6.994;2022-07-19T10:09:04;2.77;;;2.00;;
4323;SDS011;2175;51.018;6.994;2022-07-19T10:11:31;2.60;;;2.03;;
4323;SDS011;2175;51.018;6.994;2022-07-19T10:13:57;8.27;;;1.97;;
4323;SDS011;2175;51.018;6.994;2022-07-19T10:16:33;3.47;;;2.20;;
4323;SDS011;2175;51.018;6.994;2022-07-19T10:21:46;3.80;;;1.90;;
4323;SDS011;2175;51.018;6.994;2022-07-19T10:24:14;4.27;;;2.07;;
4323;SDS011;2175;51.018;6.994;2022-07-19T10:27:00;2.17;;;1.90;;
4323;SDS011;2175;51.018;6.994;2022-07-19T10:29:25;2.60;;;1.80;;
4323;SDS011;2175;51.018;6.994;2022-07-19T10:32:05;4.10;;;2.20;;
4323;SDS011;2175;51.018;6.994;2022-07-19T10:34:35;3.13;;;2.63;;
4323;SDS011;2175;51.018;6.994;2022-07-19T10:37:01;4.13;;;2.20;;
4323;SDS011;2175;51.018;6.994;2022-07-19T10:42:13;4.40;;;2.47;;
4323;SDS011;2175;51.018;6.994;2022-07-19T10:48:07;6.00;;;2.33;;
4323;SDS011;2175;51.018;6.994;2022-07-19T10:50:11;6.43;;;2.17;;
4323;SDS011;2175;51.018;6.994;2022-07-19T10:52:43;3.00;;;2.20;;
4323;SDS011;2175;51.018;6.994;2022-07-19T10:57:49;8.77;;;2.50;;
4323;SDS011;2175;51.018;6.994;2022-07-19T11:00:42;2.50;;;2.00;;
4323;SDS011;2175;51.018;6.994;2022-07-19T11:08:17;3.20;;;2.20;;
4323;SDS011;2175;51.018;6.994;2022-07-19T11:10:43;3.53;;;2.30;;
4323;SDS011;2175;51.018;6.994;2022-07-19T11:13:10;4.60;;;2.30;;
4323;SDS011;2175;51.018;6.994;2022-07-19T11:15:40;3.40;;;2.30;;
4323;SDS011;2175;51.018;6.994;2022-07-19T11:18:06;3.27;;;2.43;;
4323;SDS011;2175;51.018;6.994;2022-07-19T11:20:34;4.67;;;2.60;;
4323;SDS011;2175;51.018;6.994;2022-07-19T11:23:01;4.40;;;2.30;;
4323;SDS011;2175;51.018;6.994;2022-07-19T11:25:37;8.10;;;2.80;;
4323;SDS011;2175;51.018;6.994;2022-07-19T11:28:06;8.60;;;3.20;;
4323;SDS011;2175;51.018;6.994;2022-07-19T11:30:45;7.07;;;2.47;;
4323;SDS011;2175;51.018;6.994;2022-07-19T11:33:10;3.30;;;2.20;;
4323;SDS011;2175;51.018;6.994;2022-07-19T11:35:40;6.80;;;2.67;;
4323;SDS011;2175;51.018;6.994;2022-07-19T11:38:16;5.30;;;2.57;;
4323;SDS011;2175;51.018;6.994;2022-07-19T11:40:42;4.63;;;2.13;;
4323;SDS011;2175;51.018;6.994;2022-07-19T11:43:08;4.20;;;2.30;;
4323;SDS011;2175;51.018;6.994;2022-07-19T11:45:40;6.77;;;2.77;;
4323;SDS011;2175;51.018;6.994;2022-07-19T11:48:07;5.20;;;2.63;;
4323;SDS011;2175;51.018;6.994;2022-07-19T11:50:33;5.00;;;2.77;;
4323;SDS011;2175;51.018;6.994;2022-07-19T11:52:59;4.40;;;2.33;;
4323;SDS011;2175;51.018;6.994;2022-07-19T11:55:26;6.30;;;2.47;;
4323;SDS011;2175;51.018;6.994;2022-07-19T11:57:54;3.53;;;2.60;;
4323;SDS011;2175;51.018;6.994;2022-07-19T12:00:21;3.93;;;2.53;;
4323;SDS011;2175;51.018;6.994;2022-07-19T12:05:22;2.70;;;2.27;;
4323;SDS011;2175;51.018;6.994;2022-07-19T12:07:52;7.50;;;2.57;;
4323;SDS011;2175;51.018;6.994;2022-07-19T12:10:40;3.10;;;2.30;;
4323;SDS011;2175;51.018;6.994;2022-07-19T12:13:14;5.97;;;2.40;;
4323;SDS011;2175;51.018;6.994;2022-07-19T12:15:54;3.60;;;2.47;;
4323;SDS011;2175;51.018;6.994;2022-07-19T12:18:22;5.40;;;2.47;;
4323;SDS011;2175;51.018;6.994;2022-07-19T12:21:25;7.17;;;2.50;;
4323;SDS011;2175;51.018;6.994;2022-07-19T12:24:12;4.00;;;2.80;;
4323;SDS011;2175;51.018;6.994;2022-07-19T12:31:51;4.50;;;2.50;;
4323;SDS011;2175;51.018;6.994;2022-07-19T12:34:18;4.20;;;2.43;;
4323;SDS011;2175;51.018;6.994;2022-07-19T12:36:44;3.87;;;2.20;;
4323;SDS011;2175;51.018;6.994;2022-07-19T12:39:20;3.60;;;2.30;;
4323;SDS011;2175;51.018;6.994;2022-07-19T12:42:04;10.27;;;2.47;;
4323;SDS011;2175;51.018;6.994;2022-07-19T12:44:32;2.90;;;2.30;;
4323;SDS011;2175;51.018;6.994;2022-07-19T12:46:58;3.40;;;1.97;;
4323;SDS011;2175;51.018;6.994;2022-07-19T12:49:25;4.90;;;2.07;;
4323;SDS011;2175;51.018;6.994;2022-07-19T12:51:51;3.53;;;2.17;;
4323;SDS011;2175;51.018;6.994;2022-07-19T12:54:17;7.70;;;2.63;;
4323;SDS011;2175;51.018;6.994;2022-07-19T12:56:43;3.53;;;2.47;;
4323;SDS011;2175;51.018;6.994;2022-07-19T12:59:09;2.97;;;2.27;;
4323;SDS011;2175;51.018;6.994;2022-07-19T13:01:53;2.80;;;2.30;;
4323;SDS011;2175;51.018;6.994;2022-07-19T13:04:19;10.97;;;2.57;;
4323;SDS011;2175;51.018;6.994;2022-07-19T13:06:46;5.53;;;2.40;;
4323;SDS011;2175;51.018;6.994;2022-07-19T13:09:12;3.83;;;2.10;;
4323;SDS011;2175;51.018;6.994;2022-07-19T13:11:38;7.23;;;2.93;;
4323;SDS011;2175;51.018;6.994;2022-07-19T13:14:03;4.60;;;2.50;;
4323;SDS011;2175;51.018;6.994;2022-07-19T13:16:31;3.37;;;2.60;;
4323;SDS011;2175;51.018;6.994;2022-07-19T13:18:57;9.37;;;2.70;;
4323;SDS011;2175;51.018;6.994;2022-07-19T13:21:23;9.43;;;2.20;;
4323;SDS011;2175;51.018;6.994;2022-07-19T13:23:48;4.90;;;2.40;;
4323;SDS011;2175;51.018;6.994;2022-07-19T13:26:14;2.83;;;1.90;;
4323;SDS011;2175;51.018;6.994;2022-07-19T13:28:40;5.10;;;2.40;;
4323;SDS011;2175;51.018;6.994;2022-07-19T13:31:05;4.03;;;2.33;;
4323;SDS011;2175;51.018;6.994;2022-07-19T13:33:31;5.77;;;2.37;;
4323;SDS011;2175;51.018;6.994;2022-07-19T13:35:57;12.53;;;2.77;;
4323;SDS011;2175;51.018;6.994;2022-07-19T13:38:22;10.40;;;2.87;;
4323;SDS011;2175;51.018;6.994;2022-07-19T13:40:48;3.33;;;2.50;;
4323;SDS011;2175;51.018;6.994;2022-07-19T13:43:13;3.93;;;2.00;;
4323;SDS011;2175;51.018;6.994;2022-07-19T13:45:39;2.90;;;2.43;;
4323;SDS011;2175;51.018;6.994;2022-07-19T13:48:05;3.20;;;2.40;;
4323;SDS011;2175;51.018;6.994;2022-07-19T13:50:31;7.33;;;2.50;;
4323;SDS011;2175;51.018;6.994;2022-07-19T13:52:57;4.20;;;2.63;;
4323;SDS011;2175;51.018;6.994;2022-07-19T13:55:24;5.90;;;2.77;;
4323;SDS011;2175;51.018;6.994;2022-07-19T13:57:49;5.83;;;2.73;;
4323;SDS011;2175;51.018;6.994;2022-07-19T14:00:15;3.80;;;2.53;;
4323;SDS011;2175;51.018;6.994;2022-07-19T14:02:42;5.20;;;2.93;;
4323;SDS011;2175;51.018;6.994;2022-07-19T14:05:09;3.50;;;2.70;;
4323;SDS011;2175;51.018;6.994;2022-07-19T14:07:34;3.70;;;2.60;;
4323;SDS011;2175;51.018;6.994;2022-07-19T14:10:00;5.33;;;2.53;;
4323;SDS011;2175;51.018;6.994;2022-07-19T14:12:27;5.50;;;3.00;;
4323;SDS011;2175;51.018;6.994;2022-07-19T14:14:52;3.97;;;2.40;;
4323;SDS011;2175;51.018;6.994;2022-07-19T14:17:18;5.30;;;2.67;;
4323;SDS011;2175;51.018;6.994;2022-07-19T14:19:44;8.40;;;2.60;;
4323;SDS011;2175;51.018;6.994;2022-07-19T14:22:09;4.13;;;2.80;;
4323;SDS011;2175;51.018;6.994;2022-07-19T14:24:35;6.70;;;2.70;;
4323;SDS011;2175;51.018;6.994;2022-07-19T14:27:02;14.23;;;2.73;;
4323;SDS011;2175;51.018;6.994;2022-07-19T14:29:28;5.53;;;2.50;;
4323;SDS011;2175;51.018;6.994;2022-07-19T14:31:54;4.87;;;2.50;;
4323;SDS011;2175;51.018;6.994;2022-07-19T14:34:20;4.33;;;2.37;;
4323;SDS011;2175;51.018;6.994;2022-07-19T14:36:45;2.90;;;2.43;;
4323;SDS011;2175;51.018;6.994;2022-07-19T14:39:11;3.57;;;2.27;;
4323;SDS011;2175;51.018;6.994;2022-07-19T14:41:37;5.73;;;2.73;;
4323;SDS011;2175;51.018;6.994;2022-07-19T14:44:03;4.90;;;3.00;;
4323;SDS011;2175;51.018;6.994;2022-07-19T14:46:29;3.33;;;2.90;;
4323;SDS011;2175;51.018;6.994;2022-07-19T14:48:56;4.70;;;2.50;;
4323;SDS011;2175;51.018;6.994;2022-07-19T14:51:22;2.77;;;2.47;;
4323;SDS011;2175;51.018;6.994;2022-07-19T14:53:48;6.40;;;2.73;;
4323;SDS011;2175;51.018;6.994;2022-07-19T14:56:13;3.37;;;2.73;;
4323;SDS011;2175;51.018;6.994;2022-07-19T14:58:39;7.77;;;3.20;;
4323;SDS011;2175;51.018;6.994;2022-07-19T15:01:07;6.63;;;3.07;;
4323;SDS011;2175;51.018;6.994;2022-07-19T15:03:33;6.13;;;2.43;;
4323;SDS011;2175;51.018;6.994;2022-07-19T15:05:59;4.80;;;2.90;;
4323;SDS011;2175;51.018;6.994;2022-07-19T15:08:25;3.80;;;2.30;;
4323;SDS011;2175;51.018;6.994;2022-07-19T15:10:51;5.37;;;2.83;;
4323;SDS011;2175;51.018;6.994;2022-07-19T15:13:17;5.00;;;2.87;;
4323;SDS011;2175;51.018;6.994;2022-07-19T15:15:43;4.63;;;2.57;;
4323;SDS011;2175;51.018;6.994;2022-07-19T15:18:08;6.73;;;2.47;;
4323;SDS011;2175;51.018;6.994;2022-07-19T15:20:34;8.60;;;2.57;;
4323;SDS011;2175;51.018;6.994;2022-07-19T15:23:02;2.70;;;2.50;;
4323;SDS011;2175;51.018;6.994;2022-07-19T15:25:27;4.43;;;2.80;;
4323;SDS011;2175;51.018;6.994;2022-07-19T15:27:53;4.00;;;2.70;;
4323;SDS011;2175;51.018;6.994;2022-07-19T15:30:19;3.57;;;2.70;;
4323;SDS011;2175;51.018;6.994;2022-07-19T15:32:45;4.00;;;2.17;;
4323;SDS011;2175;51.018;6.994;2022-07-19T15:35:11;4.30;;;3.00;;
4323;SDS011;2175;51.018;6.994;2022-07-19T15:37:37;5.57;;;2.30;;
4323;SDS011;2175;51.018;6.994;2022-07-19T15:40:04;2.83;;;2.00;;
4323;SDS011;2175;51.018;6.994;2022-07-19T15:42:30;3.00;;;2.70;;
4323;SDS011;2175;51.018;6.994;2022-07-19T15:45:06;4.77;;;2.40;;